Terminal Aerodrome Forecast
Issued by NWS

Home | Current Version | Previous Version | Text Only | Print | Product List | Glossary On
Versions: 1 2 3 4 5 6 7 8 9 10 11 12 13 14 15 16 17 18 19 20
000
FTUS43 KSGF 241100 CCB
TAFBBG
TAF COR
KBBG 241155Z 2412/2512 14005KT 3SM -SHRA BKN020 OVC030
      TEMPO 2412/2415 2SM BR BKN003
     FM241500 16010G18KT P6SM -SHRA SCT012 OVC025
     FM241800 15013G21KT 6SM -SHRA BR VCTS OVC030CB
      TEMPO 2423/2503 4SM -TSRA OVC020CB
     FM250300 21008KT P6SM -SHRA VCTS BKN015 OVC020CB
     FM250600 20005KT P6SM BKN007 BKN025=

USA.gov is the U.S. government's official web portal to all federal, state and local government web resources and services.